createdAt,value
2022-08-16T00:00:38.796Z,1.27
2022-08-16T00:05:48.429Z,1.98
2022-08-16T00:10:53.401Z,1.40
2022-08-16T00:15:55.489Z,1.50
2022-08-16T00:20:58.057Z,1.67
2022-08-16T00:26:36.516Z,1.70
2022-08-16T00:31:24.147Z,1.63
2022-08-16T00:36:26.591Z,1.50
2022-08-16T00:41:29.464Z,1.70
2022-08-16T00:46:36.589Z,1.80
2022-08-16T00:51:55.002Z,1.67
2022-08-16T00:57:02.443Z,1.70
2022-08-16T01:02:30.435Z,1.92
2022-08-16T01:07:51.788Z,1.70
2022-08-16T01:12:53.120Z,2.17
2022-08-16T01:17:56.366Z,2.10
2022-08-16T01:23:20.569Z,1.55
2022-08-16T01:28:23.437Z,1.90
2022-08-16T01:33:33.481Z,1.90
2022-08-16T01:38:41.133Z,1.77
2022-08-16T01:43:53.732Z,1.77
2022-08-16T01:49:05.047Z,2.00
2022-08-16T01:54:07.615Z,2.10
2022-08-16T01:59:16.967Z,1.85
2022-08-16T02:04:48.635Z,1.90
2022-08-16T02:09:56.887Z,2.28
2022-08-16T02:15:01.101Z,1.90
2022-08-16T02:20:04.242Z,2.05
2022-08-16T02:25:16.141Z,2.30
2022-08-16T02:30:36.604Z,2.30
2022-08-16T02:35:53.906Z,2.40
2022-08-16T02:46:09.894Z,2.20
2022-08-16T02:51:12.799Z,2.13
2022-08-16T02:56:20.454Z,2.35
2022-08-16T03:01:37.174Z,2.38
2022-08-16T03:06:48.312Z,2.10
2022-08-16T03:12:03.098Z,2.05
2022-08-16T03:17:06.127Z,1.90
2022-08-16T03:22:18.930Z,2.05
2022-08-16T03:27:32.371Z,2.22
2022-08-16T03:32:35.835Z,2.40
2022-08-16T03:38:02.114Z,2.17
2022-08-16T03:43:20.281Z,2.20
2022-08-16T03:48:36.668Z,2.35
2022-08-16T03:54:00.995Z,2.67
2022-08-16T03:59:06.099Z,2.38
2022-08-16T04:04:30.916Z,2.30
2022-08-16T04:09:38.264Z,2.10
2022-08-16T04:14:46.332Z,1.95
2022-08-16T04:24:59.388Z,2.20
2022-08-16T04:30:34.991Z,2.30
2022-08-16T04:35:39.553Z,2.28
2022-08-16T04:40:43.286Z,2.33
2022-08-16T04:46:00.573Z,2.30
2022-08-16T04:51:11.578Z,2.20
2022-08-16T04:56:25.137Z,2.22
2022-08-16T05:01:55.970Z,2.75
2022-08-16T05:06:51.416Z,2.40
2022-08-16T05:12:04.197Z,2.15
2022-08-16T05:17:07.344Z,2.45
2022-08-16T05:22:17.479Z,2.45
2022-08-16T05:27:22.356Z,2.28
2022-08-16T05:32:32.850Z,2.40
2022-08-16T05:37:41.374Z,2.78
2022-08-16T05:42:49.414Z,2.65
2022-08-16T05:48:00.142Z,2.60
2022-08-16T05:53:12.647Z,2.35
2022-08-16T05:58:33.372Z,2.30
2022-08-16T06:03:37.615Z,2.72
2022-08-16T06:08:48.379Z,2.67
2022-08-16T06:13:51.219Z,2.40
2022-08-16T06:19:08.495Z,2.40
2022-08-16T06:24:52.681Z,2.83
2022-08-16T06:29:39.241Z,2.45
2022-08-16T06:34:57.229Z,2.13
2022-08-16T06:40:04.923Z,2.45
2022-08-16T06:45:11.630Z,2.90
2022-08-16T06:50:28.822Z,2.85
2022-08-16T06:55:40.636Z,2.47
2022-08-16T07:00:51.659Z,2.63
2022-08-16T07:05:57.102Z,3.05
2022-08-16T07:11:09.367Z,2.45
2022-08-16T07:16:17.271Z,2.67
2022-08-16T07:21:23.106Z,2.30
2022-08-16T07:26:26.331Z,2.25
2022-08-16T07:31:37.481Z,2.10
2022-08-16T07:36:45.653Z,2.05
2022-08-16T07:42:07.009Z,2.20
2022-08-16T07:47:11.255Z,2.13
2022-08-16T07:52:18.910Z,2.28
2022-08-16T07:57:24.518Z,2.17
2022-08-16T08:02:28.944Z,2.10
2022-08-16T08:07:33.130Z,2.03
2022-08-16T08:12:39.888Z,2.10
2022-08-16T08:17:46.499Z,2.00
2022-08-16T08:23:00.894Z,2.00
2022-08-16T08:28:10.775Z,2.20
2022-08-16T08:33:15.829Z,1.98
2022-08-16T08:38:46.008Z,2.20
2022-08-16T08:43:51.660Z,2.10
2022-08-16T08:49:01.950Z,2.08
2022-08-16T08:54:10.577Z,1.75
2022-08-16T08:59:20.080Z,2.40
2022-08-16T09:04:23.429Z,1.73
2022-08-16T09:09:25.981Z,2.08
2022-08-16T09:14:38.837Z,1.90
2022-08-16T09:19:55.305Z,1.88
2022-08-16T09:25:10.117Z,2.15
2022-08-16T09:30:34.096Z,1.90
2022-08-16T09:35:38.738Z,1.85
2022-08-16T09:40:44.093Z,1.90
2022-08-16T09:45:50.238Z,1.83
2022-08-16T09:50:59.377Z,5.47
2022-08-16T09:56:11.338Z,2.13
2022-08-16T10:01:13.325Z,1.65
2022-08-16T10:06:14.950Z,1.75
2022-08-16T10:11:50.267Z,1.92
2022-08-16T10:16:59.610Z,1.70
2022-08-16T10:22:05.031Z,1.60
2022-08-16T10:27:25.336Z,2.20
2022-08-16T10:32:30.423Z,1.90
2022-08-16T10:37:36.461Z,1.63
2022-08-16T10:42:38.487Z,1.70
2022-08-16T10:47:42.902Z,2.10
2022-08-16T10:52:46.093Z,1.50
2022-08-16T10:58:01.575Z,2.00
2022-08-16T11:08:45.391Z,1.42
2022-08-16T11:14:00.139Z,1.52
2022-08-16T11:19:14.475Z,1.80
2022-08-16T11:24:39.971Z,1.40
2022-08-16T11:29:42.532Z,1.40
2022-08-16T11:35:09.849Z,1.52
2022-08-16T11:40:08.126Z,1.70
2022-08-16T11:45:11.548Z,1.35
2022-08-16T11:50:14.378Z,1.30
2022-08-16T11:55:18.230Z,1.30
2022-08-16T12:00:33.906Z,1.60
2022-08-16T12:05:44.806Z,1.48
2022-08-16T12:10:46.667Z,1.20
2022-08-16T12:15:48.461Z,1.40
2022-08-16T12:20:55.156Z,1.50
2022-08-16T12:25:59.633Z,1.45
2022-08-16T12:31:01.487Z,1.50
2022-08-16T12:36:04.455Z,1.20
2022-08-16T12:41:11.736Z,1.30
2022-08-16T12:46:13.386Z,1.50
2022-08-16T12:51:19.585Z,1.45
2022-08-16T12:56:27.629Z,1.10
2022-08-16T13:01:33.594Z,1.45
2022-08-16T13:06:40.512Z,1.27
2022-08-16T13:11:55.257Z,1.35
2022-08-16T13:17:17.026Z,1.30
2022-08-16T13:22:23.050Z,1.30
2022-08-16T13:27:59.270Z,1.13
2022-08-16T13:32:52.075Z,1.20
2022-08-16T13:37:53.835Z,1.30
2022-08-16T13:42:59.138Z,1.25
2022-08-16T13:48:02.319Z,1.00
2022-08-16T13:53:06.426Z,1.17
2022-08-16T13:58:36.779Z,1.00
2022-08-16T14:03:30.780Z,1.10
2022-08-16T14:08:37.671Z,1.40
2022-08-16T14:13:44.352Z,1.20
2022-08-16T14:18:45.973Z,1.48
2022-08-16T14:23:51.590Z,1.40
2022-08-16T14:28:54.590Z,1.13
2022-08-16T14:33:57.346Z,1.00
2022-08-16T14:39:00.410Z,1.30
2022-08-16T14:44:02.205Z,1.00
2022-08-16T14:49:04.696Z,1.20
2022-08-16T14:54:11.303Z,1.10
2022-08-16T14:59:13.113Z,1.10
2022-08-16T15:04:39.227Z,1.02
2022-08-16T15:09:44.532Z,1.10
2022-08-16T15:14:59.419Z,1.00
2022-08-16T15:20:08.816Z,1.00
2022-08-16T15:25:19.375Z,1.05
2022-08-16T15:30:56.677Z,1.10
2022-08-16T15:35:50.664Z,1.13
2022-08-16T15:40:57.669Z,1.00
2022-08-16T15:46:54.057Z,0.88
2022-08-16T15:51:46.110Z,1.00
2022-08-16T15:56:51.486Z,0.90
2022-08-16T16:01:56.741Z,0.88
2022-08-16T16:07:00.281Z,0.90
2022-08-16T16:12:05.957Z,0.90
2022-08-16T16:17:18.320Z,1.10
2022-08-16T16:22:21.314Z,1.08
2022-08-16T16:27:23.043Z,1.17
2022-08-16T16:32:30.510Z,1.05
2022-08-16T16:37:39.946Z,1.27
2022-08-16T16:42:49.806Z,1.10
2022-08-16T16:47:56.480Z,0.90
2022-08-16T16:53:18.256Z,1.10
2022-08-16T16:58:54.028Z,0.98
2022-08-16T17:03:56.839Z,1.25
2022-08-16T17:09:04.422Z,1.03
2022-08-16T17:14:13.854Z,0.90
2022-08-16T17:19:31.810Z,1.00
2022-08-16T17:24:39.706Z,0.77
2022-08-16T17:29:46.212Z,0.90
2022-08-16T17:34:50.967Z,0.90
2022-08-16T17:40:00.563Z,1.13
2022-08-16T17:45:16.064Z,1.30
2022-08-16T17:50:17.938Z,0.80
2022-08-16T17:55:29.247Z,0.80
2022-08-16T18:00:32.085Z,1.00
2022-08-16T18:05:34.397Z,0.90
2022-08-16T18:10:40.636Z,0.95
2022-08-16T18:15:57.085Z,1.05
2022-08-16T18:21:18.665Z,1.10
2022-08-16T18:26:22.183Z,1.30
2022-08-16T18:31:26.731Z,1.20
2022-08-16T18:36:33.628Z,1.33
2022-08-16T18:41:40.186Z,1.27
2022-08-16T18:46:44.665Z,1.20
2022-08-16T18:51:52.447Z,1.10
2022-08-16T18:56:59.307Z,1.20
2022-08-16T19:02:05.933Z,1.48
2022-08-16T19:07:08.001Z,1.30
2022-08-16T19:12:09.629Z,1.23
2022-08-16T19:17:11.734Z,1.65
2022-08-16T19:22:13.398Z,1.70
2022-08-16T19:27:15.021Z,1.50
2022-08-16T19:32:26.445Z,1.40
2022-08-16T19:37:28.190Z,1.73
2022-08-16T19:42:31.365Z,1.77
2022-08-16T19:47:34.269Z,1.10
2022-08-16T19:52:38.382Z,1.33
2022-08-16T19:57:40.347Z,1.50
2022-08-16T20:02:51.234Z,1.52
2022-08-16T20:07:54.351Z,1.83
2022-08-16T20:13:03.043Z,1.17
2022-08-16T20:18:12.700Z,1.50
2022-08-16T20:23:26.665Z,1.50
2022-08-16T20:28:44.010Z,1.33
2022-08-16T20:33:53.376Z,1.20
2022-08-16T20:38:58.251Z,1.42
2022-08-16T20:44:00.517Z,1.55
2022-08-16T20:49:02.673Z,1.60
2022-08-16T20:54:04.293Z,1.45
2022-08-16T20:59:06.652Z,1.52
2022-08-16T21:04:08.697Z,1.67
2022-08-16T21:09:11.165Z,1.70
2022-08-16T21:14:17.228Z,1.75
2022-08-16T21:19:20.291Z,1.50
2022-08-16T21:24:23.906Z,1.67
2022-08-16T21:29:39.006Z,1.52
2022-08-16T21:34:43.925Z,1.92
2022-08-16T21:39:45.880Z,1.65
2022-08-16T21:44:47.925Z,1.67
2022-08-16T21:49:49.594Z,1.85
2022-08-16T21:54:54.133Z,1.55
2022-08-16T21:59:58.885Z,1.95
2022-08-16T22:05:01.479Z,1.90
2022-08-16T22:11:05.167Z,1.65
2022-08-16T22:15:27.969Z,2.00
2022-08-16T22:20:29.871Z,2.00
2022-08-16T22:25:32.612Z,1.95
2022-08-16T22:30:35.874Z,2.00
2022-08-16T22:35:49.357Z,2.10
2022-08-16T22:40:53.955Z,1.90
2022-08-16T22:45:59.549Z,1.95
2022-08-16T22:51:01.215Z,1.77
2022-08-16T22:56:03.476Z,2.45
2022-08-16T23:01:08.234Z,1.58
2022-08-16T23:06:12.424Z,1.70
2022-08-16T23:11:22.839Z,2.22
2022-08-16T23:16:33.120Z,1.92
2022-08-16T23:21:37.630Z,1.80
2022-08-16T23:26:48.107Z,1.60
2022-08-16T23:31:50.294Z,2.00
2022-08-16T23:36:55.859Z,2.10
2022-08-16T23:41:58.792Z,1.90
2022-08-16T23:47:00.583Z,2.13
2022-08-16T23:52:11.596Z,2.20
2022-08-16T23:57:14.463Z,2.15
